sensor_id;sensor_type;location;lat;lon;timestamp;pressure;altitude;pressure_sealevel;temperature;humidity
55032;BME280;40928;51.076;7.950;2023-12-20T00:01:17;96804.28;;;4.46;100.00
55032;BME280;40928;51.076;7.950;2023-12-20T00:03:42;96795.31;;;4.47;100.00
55032;BME280;40928;51.076;7.950;2023-12-20T00:06:08;96796.13;;;4.47;100.00
55032;BME280;40928;51.076;7.950;2023-12-20T00:08:33;96801.84;;;4.51;100.00
55032;BME280;40928;51.076;7.950;2023-12-20T00:10:59;96803.44;;;4.52;100.00
55032;BME280;40928;51.076;7.950;2023-12-20T00:13:24;96805.88;;;4.53;100.00
55032;BME280;40928;51.076;7.950;2023-12-20T00:15:50;96803.44;;;4.52;100.00
55032;BME280;40928;51.076;7.950;2023-12-20T00:18:15;96799.78;;;4.53;100.00
55032;BME280;40928;51.076;7.950;2023-12-20T00:20:41;96804.25;;;4.59;100.00
55032;BME280;40928;51.076;7.950;2023-12-20T00:23:06;96801.81;;;4.57;100.00
55032;BME280;40928;51.076;7.950;2023-12-20T00:25:33;96790.41;;;4.57;100.00
55032;BME280;40928;51.076;7.950;2023-12-20T00:28:00;96785.97;;;4.57;100.00
55032;BME280;40928;51.076;7.950;2023-12-20T00:30:25;96789.19;;;4.60;100.00
55032;BME280;40928;51.076;7.950;2023-12-20T00:32:51;96781.25;;;4.60;100.00
55032;BME280;40928;51.076;7.950;2023-12-20T00:35:16;96778.59;;;4.60;100.00
55032;BME280;40928;51.076;7.950;2023-12-20T00:37:43;96775.78;;;4.61;100.00
55032;BME280;40928;51.076;7.950;2023-12-20T00:40:09;96778.41;;;4.61;100.00
55032;BME280;40928;51.076;7.950;2023-12-20T00:42:35;96765.19;;;4.61;100.00
55032;BME280;40928;51.076;7.950;2023-12-20T00:45:01;96770.25;;;4.63;100.00
55032;BME280;40928;51.076;7.950;2023-12-20T00:47:27;96770.25;;;4.63;100.00
55032;BME280;40928;51.076;7.950;2023-12-20T00:49:53;96773.50;;;4.65;100.00
55032;BME280;40928;51.076;7.950;2023-12-20T00:52:18;96764.34;;;4.67;100.00
55032;BME280;40928;51.076;7.950;2023-12-20T00:54:44;96770.88;;;4.65;100.00
55032;BME280;40928;51.076;7.950;2023-12-20T00:57:10;96772.28;;;4.67;100.00
55032;BME280;40928;51.076;7.950;2023-12-20T00:59:35;96770.69;;;4.66;100.00
55032;BME280;40928;51.076;7.950;2023-12-20T01:02:01;96773.72;;;4.70;100.00
55032;BME280;40928;51.076;7.950;2023-12-20T01:04:26;96767.00;;;4.67;100.00
55032;BME280;40928;51.076;7.950;2023-12-20T01:06:52;96775.75;;;4.68;100.00
55032;BME280;40928;51.076;7.950;2023-12-20T01:09:18;96772.88;;;4.69;100.00
55032;BME280;40928;51.076;7.950;2023-12-20T01:11:44;96769.66;;;4.74;100.00
55032;BME280;40928;51.076;7.950;2023-12-20T01:14:09;96763.13;;;4.77;100.00
55032;BME280;40928;51.076;7.950;2023-12-20T01:16:35;96769.66;;;4.74;100.00
55032;BME280;40928;51.076;7.950;2023-12-20T01:19:00;96778.16;;;4.76;100.00
55032;BME280;40928;51.076;7.950;2023-12-20T01:21:26;96783.44;;;4.76;100.00
55032;BME280;40928;51.076;7.950;2023-12-20T01:23:51;96781.03;;;4.75;100.00
55032;BME280;40928;51.076;7.950;2023-12-20T01:26:17;96783.25;;;4.78;100.00
55032;BME280;40928;51.076;7.950;2023-12-20T01:28:42;96780.22;;;4.81;100.00
55032;BME280;40928;51.076;7.950;2023-12-20T01:31:08;96794.44;;;4.86;100.00
55032;BME280;40928;51.076;7.950;2023-12-20T01:33:34;96796.06;;;4.87;100.00
55032;BME280;40928;51.076;7.950;2023-12-20T01:35:59;96795.22;;;4.87;100.00
55032;BME280;40928;51.076;7.950;2023-12-20T01:38:25;96799.91;;;4.85;100.00
55032;BME280;40928;51.076;7.950;2023-12-20T01:40:50;96809.47;;;4.86;100.00
55032;BME280;40928;51.076;7.950;2023-12-20T01:43:16;96810.31;;;4.86;100.00
55032;BME280;40928;51.076;7.950;2023-12-20T01:45:41;96817.63;;;4.84;100.00
55032;BME280;40928;51.076;7.950;2023-12-20T01:48:08;96827.63;;;4.76;100.00
55032;BME280;40928;51.076;7.950;2023-12-20T01:50:36;96830.28;;;4.69;100.00
55032;BME280;40928;51.076;7.950;2023-12-20T01:53:02;96825.41;;;4.66;100.00
55032;BME280;40928;51.076;7.950;2023-12-20T01:55:30;96828.66;;;4.61;100.00
55032;BME280;40928;51.076;7.950;2023-12-20T01:57:57;96823.78;;;4.58;100.00
55032;BME280;40928;51.076;7.950;2023-12-20T02:00:23;96826.81;;;4.55;100.00
55032;BME280;40928;51.076;7.950;2023-12-20T02:02:53;96827.66;;;4.49;100.00
55032;BME280;40928;51.076;7.950;2023-12-20T02:05:21;96840.88;;;4.49;100.00
55032;BME280;40928;51.076;7.950;2023-12-20T02:07:46;96841.91;;;4.48;100.00
55032;BME280;40928;51.076;7.950;2023-12-20T02:10:12;96849.22;;;4.46;100.00
55032;BME280;40928;51.076;7.950;2023-12-20T02:12:38;96850.03;;;4.39;100.00
55032;BME280;40928;51.076;7.950;2023-12-20T02:15:04;96854.09;;;4.35;100.00
55032;BME280;40928;51.076;7.950;2023-12-20T02:17:31;96860.41;;;4.34;100.00
55032;BME280;40928;51.076;7.950;2023-12-20T02:19:57;96848.38;;;4.32;100.00
55032;BME280;40928;51.076;7.950;2023-12-20T02:22:22;96847.59;;;4.31;100.00
55032;BME280;40928;51.076;7.950;2023-12-20T02:24:48;96829.09;;;4.24;100.00
55032;BME280;40928;51.076;7.950;2023-12-20T02:27:15;96839.25;;;4.28;100.00
55032;BME280;40928;51.076;7.950;2023-12-20T02:29:43;96837.19;;;4.23;100.00
55032;BME280;40928;51.076;7.950;2023-12-20T02:32:08;96831.13;;;4.16;100.00
55032;BME280;40928;51.076;7.950;2023-12-20T02:34:34;96834.16;;;4.13;100.00
55032;BME280;40928;51.076;7.950;2023-12-20T02:36:59;96826.22;;;4.13;100.00
55032;BME280;40928;51.076;7.950;2023-12-20T02:39:25;96833.53;;;4.10;100.00
55032;BME280;40928;51.076;7.950;2023-12-20T02:41:50;96814.25;;;4.10;100.00
55032;BME280;40928;51.076;7.950;2023-12-20T02:44:16;96824.81;;;4.10;100.00
55032;BME280;40928;51.076;7.950;2023-12-20T02:46:41;96838.03;;;4.10;100.00
55032;BME280;40928;51.076;7.950;2023-12-20T02:49:07;96845.34;;;4.08;100.00
55032;BME280;40928;51.076;7.950;2023-12-20T02:51:32;96841.25;;;4.05;100.00
55032;BME280;40928;51.076;7.950;2023-12-20T02:53:58;96840.84;;;4.08;100.00
55032;BME280;40928;51.076;7.950;2023-12-20T02:56:23;96855.06;;;4.07;100.00
55032;BME280;40928;51.076;7.950;2023-12-20T02:58:49;96846.53;;;3.99;100.00
55032;BME280;40928;51.076;7.950;2023-12-20T03:01:14;96857.09;;;3.99;100.00
55032;BME280;40928;51.076;7.950;2023-12-20T03:03:40;96852.25;;;4.02;100.00
55032;BME280;40928;51.076;7.950;2023-12-20T03:06:05;96854.28;;;4.00;100.00
55032;BME280;40928;51.076;7.950;2023-12-20T03:08:31;96853.88;;;4.03;100.00
55032;BME280;40928;51.076;7.950;2023-12-20T03:10:56;96850.63;;;4.01;100.00
55032;BME280;40928;51.076;7.950;2023-12-20T03:13:22;96859.56;;;4.00;100.00
55032;BME280;40928;51.076;7.950;2023-12-20T03:15:47;96862.81;;;4.02;100.00
55032;BME280;40928;51.076;7.950;2023-12-20T03:18:13;96861.97;;;4.02;100.00
55032;BME280;40928;51.076;7.950;2023-12-20T03:20:38;96853.25;;;4.01;100.00
55032;BME280;40928;51.076;7.950;2023-12-20T03:23:04;96847.75;;;4.03;100.00
55032;BME280;40928;51.076;7.950;2023-12-20T03:25:29;96842.06;;;3.99;100.00
55032;BME280;40928;51.076;7.950;2023-12-20T03:27:55;96847.34;;;3.99;100.00
55032;BME280;40928;51.076;7.950;2023-12-20T03:30:21;96846.53;;;3.99;100.00
55032;BME280;40928;51.076;7.950;2023-12-20T03:32:47;96858.94;;;4.05;100.00
55032;BME280;40928;51.076;7.950;2023-12-20T03:35:12;96846.94;;;3.95;100.00
55032;BME280;40928;51.076;7.950;2023-12-20T03:37:38;96861.59;;;4.05;100.00
55032;BME280;40928;51.076;7.950;2023-12-20T03:40:04;96858.53;;;4.01;100.00
55032;BME280;40928;51.076;7.950;2023-12-20T03:42:30;96859.16;;;3.96;100.00
55032;BME280;40928;51.076;7.950;2023-12-20T03:44:56;96860.78;;;4.04;100.00
55032;BME280;40928;51.076;7.950;2023-12-20T03:47:21;96854.28;;;4.00;100.00
55032;BME280;40928;51.076;7.950;2023-12-20T03:49:47;96859.94;;;3.97;100.00
55032;BME280;40928;51.076;7.950;2023-12-20T03:52:12;96850.59;;;3.88;100.00
55032;BME280;40928;51.076;7.950;2023-12-20T03:54:38;96848.97;;;3.87;100.00
55032;BME280;40928;51.076;7.950;2023-12-20T03:57:04;96851.00;;;3.85;100.00
55032;BME280;40928;51.076;7.950;2023-12-20T03:59:30;96847.53;;;3.84;100.00
55032;BME280;40928;51.076;7.950;2023-12-20T04:01:55;96856.03;;;3.79;100.00
55032;BME280;40928;51.076;7.950;2023-12-20T04:04:21;96849.34;;;3.77;100.00
55032;BME280;40928;51.076;7.950;2023-12-20T04:06:46;96857.69;;;3.80;100.00
55032;BME280;40928;51.076;7.950;2023-12-20T04:09:12;96851.59;;;3.80;100.00
55032;BME280;40928;51.076;7.950;2023-12-20T04:11:37;96848.13;;;3.79;100.00
55032;BME280;40928;51.076;7.950;2023-12-20T04:14:03;96849.34;;;3.77;100.00
55032;BME280;40928;51.076;7.950;2023-12-20T04:16:30;96853.81;;;3.83;100.00
55032;BME280;40928;51.076;7.950;2023-12-20T04:18:56;96858.28;;;3.83;100.00
55032;BME280;40928;51.076;7.950;2023-12-20T04:21:21;96854.22;;;3.80;100.00
55032;BME280;40928;51.076;7.950;2023-12-20T04:23:47;96860.69;;;3.71;100.00
55032;BME280;40928;51.076;7.950;2023-12-20T04:26:12;96855.41;;;3.71;100.00
55032;BME280;40928;51.076;7.950;2023-12-20T04:28:37;96854.63;;;3.70;100.00
55032;BME280;40928;51.076;7.950;2023-12-20T04:31:03;96874.50;;;3.66;100.00
55032;BME280;40928;51.076;7.950;2023-12-20T04:33:28;96858.03;;;3.64;100.00
55032;BME280;40928;51.076;7.950;2023-12-20T04:35:54;96861.50;;;3.64;100.00
55032;BME280;40928;51.076;7.950;2023-12-20T04:38:19;96866.78;;;3.64;100.00
55032;BME280;40928;51.076;7.950;2023-12-20T04:40:45;96867.56;;;3.58;100.00
55032;BME280;40928;51.076;7.950;2023-12-20T04:43:10;96867.97;;;3.55;100.00
55032;BME280;40928;51.076;7.950;2023-12-20T04:45:36;96874.06;;;3.56;100.00
55032;BME280;40928;51.076;7.950;2023-12-20T04:48:02;96874.06;;;3.56;100.00
55032;BME280;40928;51.076;7.950;2023-12-20T04:50:28;96874.88;;;3.56;100.00
55032;BME280;40928;51.076;7.950;2023-12-20T04:52:53;96876.91;;;3.61;100.00
55032;BME280;40928;51.076;7.950;2023-12-20T04:55:19;96874.06;;;3.56;100.00
55032;BME280;40928;51.076;7.950;2023-12-20T04:57:45;96863.91;;;3.53;100.00
55032;BME280;40928;51.076;7.950;2023-12-20T05:00:11;96871.19;;;3.50;100.00
55032;BME280;40928;51.076;7.950;2023-12-20T05:02:37;96860.41;;;3.45;100.00
55032;BME280;40928;51.076;7.950;2023-12-20T05:05:03;96854.09;;;3.40;100.00
55032;BME280;40928;51.076;7.950;2023-12-20T05:07:28;96862.25;;;3.45;100.00
55032;BME280;40928;51.076;7.950;2023-12-20T05:09:54;96852.69;;;3.44;100.00
55032;BME280;40928;51.076;7.950;2023-12-20T05:12:19;96851.28;;;3.41;100.00
55032;BME280;40928;51.076;7.950;2023-12-20T05:14:46;96847.19;;;3.45;100.00
55032;BME280;40928;51.076;7.950;2023-12-20T05:17:11;96850.03;;;3.37;100.00
55032;BME280;40928;51.076;7.950;2023-12-20T05:19:37;96842.13;;;3.37;100.00
55032;BME280;40928;51.076;7.950;2023-12-20T05:22:02;96845.56;;;3.38;100.00
55032;BME280;40928;51.076;7.950;2023-12-20T05:24:28;96841.25;;;3.30;100.00
55032;BME280;40928;51.076;7.950;2023-12-20T05:26:54;96844.50;;;3.32;100.00
55032;BME280;40928;51.076;7.950;2023-12-20T05:29:19;96844.91;;;3.29;100.00
55032;BME280;40928;51.076;7.950;2023-12-20T05:31:45;96856.31;;;3.36;100.00
55032;BME280;40928;51.076;7.950;2023-12-20T05:34:11;96856.94;;;3.38;100.00
55032;BME280;40928;51.076;7.950;2023-12-20T05:36:37;96862.38;;;3.30;100.00
55032;BME280;40928;51.076;7.950;2023-12-20T05:39:02;96866.88;;;3.36;100.00
55032;BME280;40928;51.076;7.950;2023-12-20T05:41:33;96860.34;;;3.32;100.00
55032;BME280;40928;51.076;7.950;2023-12-20T05:43:59;96872.38;;;3.34;100.00
55032;BME280;40928;51.076;7.950;2023-12-20T05:46:24;96873.16;;;3.35;100.00
55032;BME280;40928;51.076;7.950;2023-12-20T05:48:50;96869.50;;;3.36;100.00
55032;BME280;40928;51.076;7.950;2023-12-20T05:51:17;96871.16;;;3.37;100.00
55032;BME280;40928;51.076;7.950;2023-12-20T05:53:44;96877.03;;;3.39;100.00
55032;BME280;40928;51.076;7.950;2023-12-20T05:56:10;96884.34;;;3.37;100.00
55032;BME280;40928;51.076;7.950;2023-12-20T05:58:36;96893.28;;;3.36;100.00
55032;BME280;40928;51.076;7.950;2023-12-20T06:01:05;96887.59;;;3.39;100.00
55032;BME280;40928;51.076;7.950;2023-12-20T06:03:31;96882.53;;;3.44;100.00
55032;BME280;40928;51.076;7.950;2023-12-20T06:05:56;96875.84;;;3.48;100.00
55032;BME280;40928;51.076;7.950;2023-12-20T06:08:22;96882.16;;;3.47;100.00
55032;BME280;40928;51.076;7.950;2023-12-20T06:10:48;96879.13;;;3.50;100.00
55032;BME280;40928;51.076;7.950;2023-12-20T06:13:14;96886.22;;;3.50;100.00
55032;BME280;40928;51.076;7.950;2023-12-20T06:15:39;96882.16;;;3.54;100.00
55032;BME280;40928;51.076;7.950;2023-12-20T06:18:07;96893.94;;;3.52;100.00
55032;BME280;40928;51.076;7.950;2023-12-20T06:20:33;96895.56;;;3.53;100.00
55032;BME280;40928;51.076;7.950;2023-12-20T06:22:58;96895.97;;;3.49;100.00
55032;BME280;40928;51.076;7.950;2023-12-20T06:25:25;96895.56;;;3.46;100.00
55032;BME280;40928;51.076;7.950;2023-12-20T06:27:50;96877.69;;;3.48;100.00
55032;BME280;40928;51.076;7.950;2023-12-20T06:30:16;96882.97;;;3.48;100.00
55032;BME280;40928;51.076;7.950;2023-12-20T06:32:42;96878.91;;;3.52;100.00
55032;BME280;40928;51.076;7.950;2023-12-20T06:35:08;96878.31;;;3.50;100.00
55032;BME280;40928;51.076;7.950;2023-12-20T06:37:34;96874.88;;;3.56;100.00
55032;BME280;40928;51.076;7.950;2023-12-20T06:40:00;96865.50;;;3.47;100.00
55032;BME280;40928;51.076;7.950;2023-12-20T06:42:25;96871.19;;;3.50;100.00
55032;BME280;40928;51.076;7.950;2023-12-20T06:44:51;96871.97;;;3.44;100.00
55032;BME280;40928;51.076;7.950;2023-12-20T06:47:16;96861.41;;;3.44;100.00
55032;BME280;40928;51.076;7.950;2023-12-20T06:49:42;96875.63;;;3.43;100.00
55032;BME280;40928;51.076;7.950;2023-12-20T06:52:07;96876.44;;;3.44;100.00
55032;BME280;40928;51.076;7.950;2023-12-20T06:54:33;96870.78;;;3.47;100.00
55032;BME280;40928;51.076;7.950;2023-12-20T06:57:00;96869.34;;;3.44;100.00
55032;BME280;40928;51.076;7.950;2023-12-20T06:59:25;96862.25;;;3.45;100.00
55032;BME280;40928;51.076;7.950;2023-12-20T07:01:51;96877.47;;;3.43;100.00
55032;BME280;40928;51.076;7.950;2023-12-20T07:04:17;96874.22;;;3.47;100.00
55032;BME280;40928;51.076;7.950;2023-12-20T07:06:47;96873.59;;;3.45;100.00
55032;BME280;40928;51.076;7.950;2023-12-20T07:09:13;96869.94;;;3.46;100.00
55032;BME280;40928;51.076;7.950;2023-12-20T07:11:39;96873.84;;;3.50;100.00
55032;BME280;40928;51.076;7.950;2023-12-20T07:14:05;96874.44;;;3.46;100.00
55032;BME280;40928;51.076;7.950;2023-12-20T07:16:30;96880.50;;;3.46;100.00
55032;BME280;40928;51.076;7.950;2023-12-20T07:18:56;96879.50;;;3.47;100.00
55032;BME280;40928;51.076;7.950;2023-12-20T07:21:22;96871.78;;;3.46;100.00
55032;BME280;40928;51.076;7.950;2023-12-20T07:23:47;96866.66;;;3.38;100.00
55032;BME280;40928;51.076;7.950;2023-12-20T07:26:13;96871.94;;;3.38;100.00
55032;BME280;40928;51.076;7.950;2023-12-20T07:28:39;96876.88;;;3.47;100.00
55032;BME280;40928;51.076;7.950;2023-12-20T07:31:06;96870.75;;;3.40;100.00
55032;BME280;40928;51.076;7.950;2023-12-20T07:33:31;96884.16;;;3.45;100.00
55032;BME280;40928;51.076;7.950;2023-12-20T07:35:57;96879.31;;;3.42;100.00
55032;BME280;40928;51.076;7.950;2023-12-20T07:38:22;96892.69;;;3.47;100.00
55032;BME280;40928;51.076;7.950;2023-12-20T07:40:48;96886.22;;;3.50;100.00
55032;BME280;40928;51.076;7.950;2023-12-20T07:43:13;96899.22;;;3.52;100.00
55032;BME280;40928;51.076;7.950;2023-12-20T07:45:38;96885.41;;;3.49;100.00
55032;BME280;40928;51.076;7.950;2023-12-20T07:48:05;96892.09;;;3.52;100.00
55032;BME280;40928;51.076;7.950;2023-12-20T07:50:31;96893.53;;;3.48;100.00
55032;BME280;40928;51.076;7.950;2023-12-20T07:52:56;96896.78;;;3.50;100.00
55032;BME280;40928;51.076;7.950;2023-12-20T07:55:24;96887.44;;;3.47;100.00
55032;BME280;40928;51.076;7.950;2023-12-20T07:57:50;96892.31;;;3.50;100.00
55032;BME280;40928;51.076;7.950;2023-12-20T08:00:15;96892.09;;;3.52;100.00
55032;BME280;40928;51.076;7.950;2023-12-20T08:02:41;96902.25;;;3.48;100.00
55032;BME280;40928;51.076;7.950;2023-12-20T08:05:07;96894.56;;;3.54;100.00
55032;BME280;40928;51.076;7.950;2023-12-20T08:07:33;96893.94;;;3.52;100.00
55032;BME280;40928;51.076;7.950;2023-12-20T08:09:58;96902.09;;;3.57;100.00
55032;BME280;40928;51.076;7.950;2023-12-20T08:12:24;96917.94;;;3.57;100.00
55032;BME280;40928;51.076;7.950;2023-12-20T08:14:53;96915.91;;;3.59;100.00
55032;BME280;40928;51.076;7.950;2023-12-20T08:17:18;96904.94;;;3.62;100.00
55032;BME280;40928;51.076;7.950;2023-12-20T08:19:44;96919.56;;;3.58;100.00
55032;BME280;40928;51.076;7.950;2023-12-20T08:22:10;96909.00;;;3.58;100.00
55032;BME280;40928;51.076;7.950;2023-12-20T08:24:36;96913.25;;;3.59;100.00
55032;BME280;40928;51.076;7.950;2023-12-20T08:27:02;96903.75;;;3.64;100.00
55032;BME280;40928;51.076;7.950;2023-12-20T08:29:28;96896.81;;;3.57;100.00
55032;BME280;40928;51.076;7.950;2023-12-20T08:31:55;96900.84;;;3.53;100.00
55032;BME280;40928;51.076;7.950;2023-12-20T08:34:21;96906.53;;;3.49;100.00
55032;BME280;40928;51.076;7.950;2023-12-20T08:36:46;96907.28;;;3.43;100.00
55032;BME280;40928;51.076;7.950;2023-12-20T08:39:12;96901.88;;;3.52;100.00
55032;BME280;40928;51.076;7.950;2023-12-20T08:41:37;96901.66;;;3.53;100.00
55032;BME280;40928;51.076;7.950;2023-12-20T08:44:03;96902.25;;;3.48;100.00
55032;BME280;40928;51.076;7.950;2023-12-20T08:46:28;96901.44;;;3.48;100.00
55032;BME280;40928;51.076;7.950;2023-12-20T08:48:54;96905.91;;;3.47;100.00
55032;BME280;40928;51.076;7.950;2023-12-20T08:51:20;96900.84;;;3.53;100.00
55032;BME280;40928;51.076;7.950;2023-12-20T08:53:46;96888.28;;;3.55;100.00
55032;BME280;40928;51.076;7.950;2023-12-20T08:56:13;96893.56;;;3.55;100.00
55032;BME280;40928;51.076;7.950;2023-12-20T08:58:38;96893.16;;;3.58;100.00
55032;BME280;40928;51.076;7.950;2023-12-20T09:01:04;96886.66;;;3.54;100.00
55032;BME280;40928;51.076;7.950;2023-12-20T09:03:29;96882.75;;;3.49;100.00
55032;BME280;40928;51.076;7.950;2023-12-20T09:05:55;96884.19;;;3.52;100.00
55032;BME280;40928;51.076;7.950;2023-12-20T09:08:20;96882.38;;;3.53;100.00
55032;BME280;40928;51.076;7.950;2023-12-20T09:10:45;96887.03;;;3.50;100.00
55032;BME280;40928;51.076;7.950;2023-12-20T09:13:11;96879.53;;;3.54;100.00
55032;BME280;40928;51.076;7.950;2023-12-20T09:15:37;96875.47;;;3.52;100.00
55032;BME280;40928;51.076;7.950;2023-12-20T09:18:02;96875.88;;;3.55;100.00
55032;BME280;40928;51.076;7.950;2023-12-20T09:20:28;96881.41;;;3.67;100.00
55032;BME280;40928;51.076;7.950;2023-12-20T09:22:54;96887.06;;;3.57;100.00
55032;BME280;40928;51.076;7.950;2023-12-20T09:25:19;96878.94;;;3.59;100.00
55032;BME280;40928;51.076;7.950;2023-12-20T09:27:45;96883.00;;;3.55;100.00
55032;BME280;40928;51.076;7.950;2023-12-20T09:30:10;96879.97;;;3.58;100.00
55032;BME280;40928;51.076;7.950;2023-12-20T09:32:36;96882.16;;;3.54;100.00
55032;BME280;40928;51.076;7.950;2023-12-20T09:35:02;96889.09;;;3.62;100.00
55032;BME280;40928;51.076;7.950;2023-12-20T09:37:28;96875.50;;;3.58;100.00
55032;BME280;40928;51.076;7.950;2023-12-20T09:39:54;96885.03;;;3.59;100.00
55032;BME280;40928;51.076;7.950;2023-12-20T09:42:43;96879.75;;;3.59;100.00
55032;BME280;40928;51.076;7.950;2023-12-20T09:45:14;96879.97;;;3.58;100.00
55032;BME280;40928;51.076;7.950;2023-12-20T09:47:43;96875.72;;;3.63;100.00
55032;BME280;40928;51.076;7.950;2023-12-20T09:50:09;96868.78;;;3.56;100.00
55032;BME280;40928;51.076;7.950;2023-12-20T09:52:36;96870.22;;;3.58;100.00
55032;BME280;40928;51.076;7.950;2023-12-20T09:55:04;96868.19;;;3.60;100.00
55032;BME280;40928;51.076;7.950;2023-12-20T09:57:32;96860.28;;;3.60;100.00
55032;BME280;40928;51.076;7.950;2023-12-20T09:59:57;96867.19;;;3.61;100.00
55032;BME280;40928;51.076;7.950;2023-12-20T10:02:24;96861.69;;;3.63;100.00
55032;BME280;40928;51.076;7.950;2023-12-20T10:04:53;96859.84;;;3.57;100.00
55032;BME280;40928;51.076;7.950;2023-12-20T10:07:19;96858.00;;;3.50;100.00
55032;BME280;40928;51.076;7.950;2023-12-20T10:09:46;96860.63;;;3.50;100.00
55032;BME280;40928;51.076;7.950;2023-12-20T10:12:12;96858.38;;;3.47;100.00
55032;BME280;40928;51.076;7.950;2023-12-20T10:14:39;96860.63;;;3.50;100.00
55032;BME280;40928;51.076;7.950;2023-12-20T10:17:05;96859.63;;;3.52;100.00
55032;BME280;40928;51.076;7.950;2023-12-20T10:19:32;96861.03;;;3.54;100.00
55032;BME280;40928;51.076;7.950;2023-12-20T10:22:00;96856.97;;;3.52;100.00
55032;BME280;40928;51.076;7.950;2023-12-20T10:24:28;96872.44;;;3.55;100.00
55032;BME280;40928;51.076;7.950;2023-12-20T10:27:05;96861.03;;;3.54;100.00
55032;BME280;40928;51.076;7.950;2023-12-20T10:29:37;96860.63;;;3.50;100.00
55032;BME280;40928;51.076;7.950;2023-12-20T10:32:26;96865.53;;;3.54;100.00
55032;BME280;40928;51.076;7.950;2023-12-20T10:34:54;96869.41;;;3.58;100.00
55032;BME280;40928;51.076;7.950;2023-12-20T10:37:20;96872.84;;;3.58;100.00
55032;BME280;40928;51.076;7.950;2023-12-20T10:39:50;96867.19;;;3.61;100.00
55032;BME280;40928;51.076;7.950;2023-12-20T10:42:27;96863.94;;;3.66;100.00
55032;BME280;40928;51.076;7.950;2023-12-20T10:44:52;96865.16;;;3.63;100.00
55032;BME280;40928;51.076;7.950;2023-12-20T10:47:22;96863.91;;;3.53;100.00
55032;BME280;40928;51.076;7.950;2023-12-20T10:49:52;96856.22;;;3.58;100.00
55032;BME280;40928;51.076;7.950;2023-12-20T10:52:17;96840.38;;;3.58;100.00
55032;BME280;40928;51.076;7.950;2023-12-20T10:54:44;96855.78;;;3.61;100.00
55032;BME280;40928;51.076;7.950;2023-12-20T10:57:10;96846.22;;;3.60;100.00
55032;BME280;40928;51.076;7.950;2023-12-20T10:59:37;96844.22;;;3.69;100.00
55032;BME280;40928;51.076;7.950;2023-12-20T11:02:04;96845.44;;;3.66;100.00
55032;BME280;40928;51.076;7.950;2023-12-20T11:04:51;96839.38;;;3.65;100.00
55032;BME280;40928;51.076;7.950;2023-12-20T11:07:31;96833.47;;;3.63;100.00
55032;BME280;40928;51.076;7.950;2023-12-20T11:10:02;96823.72;;;3.64;100.00
55032;BME280;40928;51.076;7.950;2023-12-20T11:12:37;96830.22;;;3.61;100.00
55032;BME280;40928;51.076;7.950;2023-12-20T11:15:04;96826.53;;;3.56;100.00
55032;BME280;40928;51.076;7.950;2023-12-20T11:17:31;96832.22;;;3.53;100.00
55032;BME280;40928;51.076;7.950;2023-12-20T11:22:24;96826.94;;;3.59;100.00
55032;BME280;40928;51.076;7.950;2023-12-20T11:24:51;96816.38;;;3.53;100.00
55032;BME280;40928;51.076;7.950;2023-12-20T11:27:19;96830.59;;;3.52;100.00
55032;BME280;40928;51.076;7.950;2023-12-20T11:29:52;96822.44;;;3.53;100.00
55032;BME280;40928;51.076;7.950;2023-12-20T11:34:51;96817.59;;;3.50;100.00
55032;BME280;40928;51.076;7.950;2023-12-20T11:37:19;96823.88;;;3.42;100.00
55032;BME280;40928;51.076;7.950;2023-12-20T11:39:45;96815.72;;;3.37;100.00
55032;BME280;40928;51.076;7.950;2023-12-20T11:42:10;96821.66;;;3.53;100.00
55032;BME280;40928;51.076;7.950;2023-12-20T11:44:37;96824.28;;;3.46;100.00
55032;BME280;40928;51.076;7.950;2023-12-20T11:47:03;96827.56;;;3.55;100.00
55032;BME280;40928;51.076;7.950;2023-12-20T11:49:29;96821.66;;;3.53;100.00
55032;BME280;40928;51.076;7.950;2023-12-20T11:51:57;96823.31;;;3.60;100.00
55032;BME280;40928;51.076;7.950;2023-12-20T11:54:22;96821.25;;;3.49;100.00
55032;BME280;40928;51.076;7.950;2023-12-20T11:56:48;96805.59;;;3.47;100.00
55032;BME280;40928;51.076;7.950;2023-12-20T11:59:14;96813.72;;;3.53;100.00
55032;BME280;40928;51.076;7.950;2023-12-20T12:01:48;96813.72;;;3.53;100.00
55032;BME280;40928;51.076;7.950;2023-12-20T12:04:14;96807.84;;;3.50;100.00
55032;BME280;40928;51.076;7.950;2023-12-20T12:06:40;96814.53;;;3.60;100.00
55032;BME280;40928;51.076;7.950;2023-12-20T12:09:06;96802.56;;;3.57;100.00
55032;BME280;40928;51.076;7.950;2023-12-20T12:11:31;96801.16;;;3.61;100.00
55032;BME280;40928;51.076;7.950;2023-12-20T12:13:57;96794.03;;;3.62;100.00
55032;BME280;40928;51.076;7.950;2023-12-20T12:16:22;96793.66;;;3.65;100.00
55032;BME280;40928;51.076;7.950;2023-12-20T12:18:57;96784.31;;;3.62;100.00
55032;BME280;40928;51.076;7.950;2023-12-20T12:21:24;96781.66;;;3.62;100.00
55032;BME280;40928;51.076;7.950;2023-12-20T12:23:49;96783.31;;;3.63;100.00
55032;BME280;40928;51.076;7.950;2023-12-20T12:26:15;96780.22;;;3.60;100.00
55032;BME280;40928;51.076;7.950;2023-12-20T12:28:41;96776.19;;;3.64;100.00
55032;BME280;40928;51.076;7.950;2023-12-20T12:31:08;96790.00;;;3.66;100.00
55032;BME280;40928;51.076;7.950;2023-12-20T12:33:34;96786.13;;;3.69;100.00
55032;BME280;40928;51.076;7.950;2023-12-20T12:36:01;96789.00;;;3.67;100.00
55032;BME280;40928;51.076;7.950;2023-12-20T12:38:26;96784.94;;;3.64;100.00
55032;BME280;40928;51.076;7.950;2023-12-20T12:40:54;96780.22;;;3.66;100.00
55032;BME280;40928;51.076;7.950;2023-12-20T12:43:20;96770.28;;;3.69;100.00
55032;BME280;40928;51.076;7.950;2023-12-20T12:45:45;96764.38;;;3.66;100.00
55032;BME280;40928;51.076;7.950;2023-12-20T12:48:11;96760.16;;;3.65;100.00
55032;BME280;40928;51.076;7.950;2023-12-20T12:50:36;96759.09;;;3.60;100.00
55032;BME280;40928;51.076;7.950;2023-12-20T12:53:02;96759.53;;;3.63;100.00
55032;BME280;40928;51.076;7.950;2023-12-20T12:55:28;96755.44;;;3.61;100.00
55032;BME280;40928;51.076;7.950;2023-12-20T12:57:54;96740.63;;;3.60;100.00
55032;BME280;40928;51.076;7.950;2023-12-20T13:00:19;96733.31;;;3.55;100.00